Time;durP1;ratioP1;P1;durP2;ratioP2;P2;SDS_P1;SDS_P2;PMS_P1;PMS_P2;Temp;Humidity;BMP_temperature;BMP_pressure;BME280_temperature;BME280_humidity;BME280_pressure;Samples;Min_cycle;Max_cycle;Signal;HPM_P1;HPM_P2
2022/01/05 00:01:40;;;;;;;5.37;2.73;;;;;;;5.44;100.00;95384.03;5075254;28;20032;-71
2022/01/05 00:04:07;;;;;;;6.00;3.73;;;;;;;5.46;100.00;95375.09;5074348;28;20489;-72
2022/01/05 00:06:34;;;;;;;5.57;2.33;;;;;;;5.50;100.00;95378.28;5075339;28;20080;-72
2022/01/05 00:09:03;;;;;;;2.63;2.07;;;;;;;5.51;100.00;95372.09;5074424;28;20101;-72
2022/01/05 00:11:30;;;;;;;5.20;2.20;;;;;;;5.54;100.00;95370.06;5074440;28;20135;-72
2022/01/05 00:13:58;;;;;;;5.87;3.00;;;;;;;5.60;100.00;95361.66;5075318;28;20036;-72
2022/01/05 00:16:25;;;;;;;7.40;3.10;;;;;;;5.64;100.00;95370.06;5075482;28;20451;-71
2022/01/05 00:18:53;;;;;;;5.57;2.43;;;;;;;5.67;100.00;95377.63;5074998;28;20048;-72
2022/01/05 00:21:20;;;;;;;3.00;2.60;;;;;;;5.74;100.00;95369.09;5074087;28;20048;-72
2022/01/05 00:23:47;;;;;;;9.30;3.27;;;;;;;5.77;100.00;95363.59;5074930;28;20485;-70
2022/01/05 00:26:16;;;;;;;5.37;2.87;;;;;;;5.82;100.00;95368.44;5074934;28;20572;-71
2022/01/05 00:28:43;;;;;;;7.33;2.73;;;;;;;5.82;100.00;95361.41;5074847;28;20544;-71
2022/01/05 00:31:10;;;;;;;4.47;2.63;;;;;;;5.78;100.00;95354.81;5074439;28;20029;-71
2022/01/05 00:33:37;;;;;;;6.33;4.03;;;;;;;5.69;100.00;95349.59;5074820;28;20051;-72
2022/01/05 00:36:05;;;;;;;5.43;2.23;;;;;;;5.64;100.00;95349.19;5073480;28;20055;-71
2022/01/05 00:38:32;;;;;;;6.40;2.97;;;;;;;5.60;100.00;95335.56;5074880;28;20044;-72
2022/01/05 00:41:00;;;;;;;3.80;2.27;;;;;;;5.68;100.00;95343.53;5074829;28;20044;-71
2022/01/05 00:43:28;;;;;;;6.73;3.30;;;;;;;5.80;100.00;95346.84;5074571;28;20044;-70
2022/01/05 00:45:55;;;;;;;5.37;2.77;;;;;;;5.88;100.00;95344.34;5074598;28;20044;-70
2022/01/05 00:48:22;;;;;;;6.00;3.67;;;;;;;5.93;100.00;95350.81;5073331;28;20076;-70
2022/01/05 00:50:50;;;;;;;5.60;2.90;;;;;;;5.99;100.00;95358.09;5074259;28;20124;-71
2022/01/05 00:53:17;;;;;;;6.73;3.33;;;;;;;6.08;100.00;95354.66;5073412;28;20033;-70
2022/01/05 00:55:44;;;;;;;4.27;2.80;;;;;;;6.17;100.00;95368.66;5074329;28;20041;-70
2022/01/05 00:58:11;;;;;;;5.47;3.13;;;;;;;6.26;100.00;95354.78;5072827;28;20075;-70
2022/01/05 01:00:39;;;;;;;8.70;2.97;;;;;;;6.29;100.00;95360.53;5073943;28;20063;-70
2022/01/05 01:03:06;;;;;;;4.20;3.23;;;;;;;6.38;100.00;95362.28;5073920;28;20540;-70
2022/01/05 01:05:33;;;;;;;4.33;3.10;;;;;;;6.42;100.00;95350.63;5074071;28;20457;-70
2022/01/05 01:08:00;;;;;;;8.30;2.93;;;;;;;6.48;100.00;95367.53;5073913;28;20440;-71
2022/01/05 01:10:27;;;;;;;5.47;3.43;;;;;;;6.50;100.00;95369.03;5073975;28;20068;-69
2022/01/05 01:12:54;;;;;;;6.13;3.27;;;;;;;6.51;100.00;95349.75;5073879;28;20051;-71
2022/01/05 01:15:21;;;;;;;4.27;2.70;;;;;;;6.51;100.00;95362.84;5072768;28;20040;-71
2022/01/05 01:17:50;;;;;;;5.73;3.83;;;;;;;6.54;100.00;95359.09;5074016;28;20047;-71
2022/01/05 01:20:18;;;;;;;5.43;2.97;;;;;;;6.55;100.00;95366.81;5073767;28;20114;-70
2022/01/05 01:22:45;;;;;;;3.77;2.90;;;;;;;6.58;100.00;95360.47;5074058;28;20497;-71
2022/01/05 01:25:12;;;;;;;4.27;2.87;;;;;;;6.59;100.00;95362.13;5073659;28;20091;-69
2022/01/05 01:27:42;;;;;;;7.57;3.90;;;;;;;6.58;100.00;95370.91;5073653;28;20045;-70
2022/01/05 01:30:12;;;;;;;3.07;2.50;;;;;;;6.56;100.00;95354.56;5073591;28;20040;-70
2022/01/05 01:32:40;;;;;;;4.87;3.50;;;;;;;6.58;100.00;95368.31;5073569;28;20037;-71
2022/01/05 01:35:34;;;;;;;5.67;3.30;;;;;;;6.52;100.00;95380.16;5073686;28;20041;-71
2022/01/05 01:38:01;;;;;;;3.92;3.17;;;;;;;6.46;100.00;95388.56;5060355;28;20527;-70
2022/01/05 01:40:28;;;;;;;4.20;3.17;;;;;;;6.40;100.00;95383.91;5073327;28;20044;-71
2022/01/05 01:42:55;;;;;;;4.63;3.73;;;;;;;6.40;100.00;95385.69;5072428;28;20061;-70
2022/01/05 01:45:23;;;;;;;3.57;2.67;;;;;;;6.36;100.00;95372.09;5073153;28;20044;-70
2022/01/05 01:47:50;;;;;;;7.10;2.80;;;;;;;6.33;100.00;95381.97;5073203;28;20135;-70
2022/01/05 01:50:17;;;;;;;5.20;3.23;;;;;;;6.35;100.00;95374.84;5073591;28;20044;-71
2022/01/05 01:52:45;;;;;;;5.83;3.43;;;;;;;6.36;100.00;95377.31;5071786;28;20529;-71
2022/01/05 01:55:13;;;;;;;6.10;3.20;;;;;;;6.37;100.00;95372.91;5073338;28;20089;-71
2022/01/05 01:57:43;;;;;;;5.83;4.00;;;;;;;6.41;100.00;95374.28;5073246;28;20046;-71
2022/01/05 02:00:11;;;;;;;4.47;2.93;;;;;;;6.45;100.00;95381.69;5070909;28;20071;-69
2022/01/05 02:02:45;;;;;;;4.93;3.60;;;;;;;6.42;100.00;95392.44;5073138;28;20045;-69
2022/01/05 02:05:12;;;;;;;5.70;3.37;;;;;;;6.50;100.00;95396.94;5068065;28;20045;-69
2022/01/05 02:07:39;;;;;;;4.53;3.97;;;;;;;6.60;100.00;95400.38;5073015;28;20064;-70
2022/01/05 02:10:09;;;;;;;7.97;3.97;;;;;;;6.65;100.00;95409.44;5072759;28;20040;-70
2022/01/05 02:12:37;;;;;;;3.87;3.00;;;;;;;6.69;100.00;95402.97;5072745;28;20094;-70
2022/01/05 02:15:04;;;;;;;4.23;3.37;;;;;;;6.72;100.00;95402.69;5072991;28;20516;-70
2022/01/05 02:17:44;;;;;;;4.87;3.60;;;;;;;6.73;100.00;95391.25;5072698;28;20366;-71
2022/01/05 02:20:16;;;;;;;5.63;3.90;;;;;;;6.80;100.00;95401.97;5072923;28;20477;-70
2022/01/05 02:22:45;;;;;;;6.07;4.27;;;;;;;6.81;100.00;95414.91;5073197;28;20140;-69
2022/01/05 02:25:13;;;;;;;6.37;4.10;;;;;;;6.86;100.00;95404.00;5072935;28;20053;-70
2022/01/05 02:27:40;;;;;;;5.03;3.70;;;;;;;6.88;100.00;95399.44;5072639;28;20036;-70
2022/01/05 02:30:10;;;;;;;5.80;3.90;;;;;;;6.92;100.00;95396.41;5072765;28;20043;-70
2022/01/05 02:32:37;;;;;;;7.33;5.70;;;;;;;6.95;100.00;95388.28;5072615;28;20041;-70
2022/01/05 02:35:06;;;;;;;7.60;4.83;;;;;;;6.99;100.00;95389.66;5072928;28;20431;-71
2022/01/05 02:37:33;;;;;;;8.20;5.73;;;;;;;7.03;100.00;95387.56;5071961;28;20055;-70
2022/01/05 02:40:01;;;;;;;7.53;5.20;;;;;;;7.02;100.00;95386.75;5072874;28;20102;-71
2022/01/05 02:42:30;;;;;;;6.57;4.93;;;;;;;6.99;100.00;95383.56;5072709;28;20044;-70
2022/01/05 02:44:58;;;;;;;7.07;4.23;;;;;;;7.00;100.00;95374.78;5072644;28;20343;-70
2022/01/05 02:47:25;;;;;;;6.07;4.40;;;;;;;7.02;100.00;95380.69;5071611;28;20408;-70
2022/01/05 02:49:52;;;;;;;8.67;5.27;;;;;;;6.96;100.00;95369.00;5072855;28;20098;-70
2022/01/05 02:52:19;;;;;;;5.77;4.63;;;;;;;6.92;100.00;95380.72;5072214;28;20045;-70
2022/01/05 02:54:46;;;;;;;7.50;4.90;;;;;;;6.88;100.00;95374.13;5073340;28;20114;-68
2022/01/05 02:57:14;;;;;;;6.53;4.80;;;;;;;6.87;100.00;95393.41;5076554;28;20170;-69
2022/01/05 02:59:41;;;;;;;9.23;4.87;;;;;;;6.89;100.00;95401.94;5076411;28;20568;-69
2022/01/05 03:02:08;;;;;;;7.27;4.97;;;;;;;6.88;100.00;95408.13;5076194;28;20032;-69
2022/01/05 03:04:35;;;;;;;6.73;4.60;;;;;;;6.89;100.00;95401.94;5076242;28;20482;-70
2022/01/05 03:07:02;;;;;;;8.07;5.73;;;;;;;6.85;100.00;95405.78;5075373;28;20505;-70
2022/01/05 03:09:29;;;;;;;7.13;4.30;;;;;;;6.81;100.00;95403.59;5076496;28;20063;-70
2022/01/05 03:11:56;;;;;;;6.57;4.93;;;;;;;6.85;100.00;95412.84;5075850;28;20045;-71
2022/01/05 03:14:24;;;;;;;7.60;5.37;;;;;;;6.85;100.00;95407.59;5075944;28;20043;-70
2022/01/05 03:16:51;;;;;;;7.37;5.17;;;;;;;6.84;100.00;95401.53;5075942;28;20054;-70
2022/01/05 03:19:18;;;;;;;6.43;4.60;;;;;;;6.87;100.00;95400.44;5073351;28;20041;-69
2022/01/05 03:21:45;;;;;;;7.53;4.23;;;;;;;6.92;100.00;95391.19;5075956;28;20036;-69
2022/01/05 03:24:12;;;;;;;7.60;5.83;;;;;;;6.94;100.00;95407.56;5076022;28;20048;-69
2022/01/05 03:26:39;;;;;;;6.20;4.33;;;;;;;6.99;100.00;95418.41;5076273;28;20075;-69
2022/01/05 03:29:07;;;;;;;7.90;5.10;;;;;;;7.03;100.00;95419.78;5075921;28;20135;-70
2022/01/05 03:31:35;;;;;;;7.63;4.80;;;;;;;7.04;100.00;95412.78;5075963;28;20158;-68
2022/01/05 03:34:04;;;;;;;7.77;5.20;;;;;;;7.04;100.00;95413.56;5075996;28;20044;-70
2022/01/05 03:36:31;;;;;;;8.07;4.60;;;;;;;7.05;100.00;95430.94;5075682;28;20120;-69
2022/01/05 03:38:58;;;;;;;8.20;4.97;;;;;;;7.05;100.00;95417.84;5075824;28;20043;-69
2022/01/05 03:41:25;;;;;;;9.93;5.57;;;;;;;7.06;100.00;95423.91;5075617;28;20098;-70
2022/01/05 03:43:52;;;;;;;6.83;5.37;;;;;;;7.08;100.00;95420.16;5075756;28;20565;-69
2022/01/05 03:46:19;;;;;;;7.60;5.03;;;;;;;7.08;100.00;95429.81;5074111;28;20087;-68
2022/01/05 03:48:48;;;;;;;7.63;4.73;;;;;;;7.06;100.00;95440.44;5074468;28;20098;-69
2022/01/05 03:51:15;;;;;;;8.70;6.20;;;;;;;7.09;100.00;95445.38;5075263;28;20135;-69
2022/01/05 03:53:42;;;;;;;7.77;5.77;;;;;;;7.10;100.00;95449.63;5075345;28;20128;-70
2022/01/05 03:56:09;;;;;;;8.80;5.33;;;;;;;7.12;100.00;95459.97;5075126;28;20051;-70
2022/01/05 03:58:36;;;;;;;7.83;5.17;;;;;;;7.12;100.00;95465.19;5075221;28;20068;-69
2022/01/05 04:01:03;;;;;;;6.90;4.63;;;;;;;7.13;100.00;95477.31;5075189;28;20516;-69
2022/01/05 04:03:30;;;;;;;6.83;4.83;;;;;;;7.14;100.00;95484.16;5075010;28;20037;-69
2022/01/05 04:05:59;;;;;;;7.03;5.37;;;;;;;7.14;100.00;95487.63;5073937;28;20045;-69
2022/01/05 04:08:27;;;;;;;7.43;5.30;;;;;;;7.16;100.00;95503.19;5074989;28;20485;-70
2022/01/05 04:10:54;;;;;;;6.90;5.27;;;;;;;7.19;100.00;95492.44;5073907;28;20045;-70
2022/01/05 04:13:21;;;;;;;7.27;5.10;;;;;;;7.20;100.00;95497.53;5075008;28;20037;-70
2022/01/05 04:15:48;;;;;;;10.67;5.50;;;;;;;7.17;100.00;95503.03;5075297;28;20519;-70
2022/01/05 04:18:15;;;;;;;7.37;5.27;;;;;;;7.20;100.00;95509.78;5075321;28;20514;-70
2022/01/05 04:20:42;;;;;;;10.80;5.23;;;;;;;7.19;100.00;95514.19;5073539;28;20059;-70
2022/01/05 04:23:11;;;;;;;8.70;5.10;;;;;;;7.22;100.00;95526.97;5074900;28;20473;-70
2022/01/05 04:25:38;;;;;;;7.47;5.13;;;;;;;7.20;100.00;95531.53;5074355;28;20047;-71
2022/01/05 04:28:05;;;;;;;5.53;4.23;;;;;;;7.21;100.00;95524.50;5074814;28;20040;-70
2022/01/05 04:30:32;;;;;;;7.07;5.33;;;;;;;7.20;100.00;95515.84;5074565;28;20047;-70
2022/01/05 04:33:00;;;;;;;6.73;5.00;;;;;;;7.23;100.00;95525.19;5074697;28;20075;-70
2022/01/05 04:35:27;;;;;;;8.33;5.53;;;;;;;7.23;100.00;95531.28;5074696;28;20435;-71
2022/01/05 04:37:54;;;;;;;8.30;5.53;;;;;;;7.22;100.00;95534.84;5074895;28;20135;-70
2022/01/05 04:40:23;;;;;;;9.27;4.93;;;;;;;7.20;100.00;95521.09;5074441;28;20087;-70
2022/01/05 04:42:50;;;;;;;6.67;5.07;;;;;;;7.20;100.00;95528.94;5074362;28;20075;-70
2022/01/05 04:45:17;;;;;;;8.70;6.10;;;;;;;7.20;100.00;95531.53;5074216;28;20052;-69
2022/01/05 04:47:44;;;;;;;10.43;5.43;;;;;;;7.21;100.00;95533.19;5074147;28;20498;-69
2022/01/05 04:50:15;;;;;;;6.70;5.13;;;;;;;7.22;100.00;95544.50;5074665;28;20075;-69
2022/01/05 04:52:42;;;;;;;6.90;4.43;;;;;;;7.20;100.00;95539.41;5073840;28;20516;-70
2022/01/05 04:55:09;;;;;;;8.07;5.27;;;;;;;7.18;100.00;95549.16;5074231;28;20062;-71
2022/01/05 04:57:38;;;;;;;7.40;5.47;;;;;;;7.23;100.00;95554.81;5074128;28;20040;-70
2022/01/05 05:00:07;;;;;;;6.67;5.30;;;;;;;7.21;100.00;95554.13;5074231;28;20045;-68
2022/01/05 05:02:34;;;;;;;7.67;5.33;;;;;;;7.22;100.00;95549.72;5073967;28;20060;-69
2022/01/05 05:05:01;;;;;;;8.97;5.97;;;;;;;7.22;100.00;95550.53;5073614;28;20135;-69
2022/01/05 05:07:28;;;;;;;7.83;5.70;;;;;;;7.24;100.00;95559.09;5074059;28;20071;-69
2022/01/05 05:09:55;;;;;;;7.07;4.77;;;;;;;7.24;100.00;95563.47;5073798;28;20071;-70
2022/01/05 05:12:23;;;;;;;9.13;6.20;;;;;;;7.24;100.00;95564.31;5072576;28;20056;-70
2022/01/05 05:14:51;;;;;;;7.27;4.87;;;;;;;7.24;100.00;95569.56;5073390;28;20042;-70
2022/01/05 05:17:18;;;;;;;9.17;5.00;;;;;;;7.24;100.00;95576.56;5073091;28;20044;-69
2022/01/05 05:19:45;;;;;;;7.77;5.97;;;;;;;7.25;100.00;95581.69;5073511;28;20477;-69
2022/01/05 05:22:12;;;;;;;8.90;5.23;;;;;;;7.28;100.00;95578.81;5073448;28;20090;-69
2022/01/05 05:24:39;;;;;;;8.60;5.70;;;;;;;7.27;100.00;95584.16;5072978;28;20044;-69
2022/01/05 05:27:06;;;;;;;9.60;5.60;;;;;;;7.28;100.00;95594.50;5072715;28;20076;-70
2022/01/05 05:29:34;;;;;;;8.97;5.57;;;;;;;7.26;100.00;95596.41;5073403;28;20505;-69
2022/01/05 05:32:02;;;;;;;7.67;5.77;;;;;;;7.27;100.00;95607.72;5073302;28;20555;-69
2022/01/05 05:34:29;;;;;;;8.20;5.90;;;;;;;7.28;100.00;95596.28;5073119;28;20044;-70
2022/01/05 05:36:56;;;;;;;9.47;6.40;;;;;;;7.28;100.00;95601.50;5071966;28;20045;-70
2022/01/05 05:39:23;;;;;;;7.90;5.90;;;;;;;7.28;100.00;95612.81;5072995;28;20046;-70
2022/01/05 05:41:50;;;;;;;10.23;6.17;;;;;;;7.27;100.00;95611.19;5072858;28;20075;-69
2022/01/05 05:44:17;;;;;;;8.53;5.10;;;;;;;7.24;100.00;95607.97;5070116;28;20488;-69
2022/01/05 05:46:44;;;;;;;9.17;5.90;;;;;;;7.24;100.00;95632.34;5072848;28;20055;-70
2022/01/05 05:49:12;;;;;;;8.30;5.90;;;;;;;7.25;100.00;95623.56;5072489;28;20037;-69
2022/01/05 05:51:39;;;;;;;6.67;5.13;;;;;;;7.26;100.00;95629.63;5072525;28;20076;-68
2022/01/05 05:54:06;;;;;;;9.60;6.10;;;;;;;7.24;100.00;95642.00;5071271;28;20036;-69
2022/01/05 05:56:33;;;;;;;12.00;6.93;;;;;;;7.21;100.00;95643.09;5071585;28;20507;-69
2022/01/05 05:59:01;;;;;;;8.73;6.57;;;;;;;7.18;100.00;95651.22;5072772;28;20070;-69
2022/01/05 06:01:28;;;;;;;10.47;6.90;;;;;;;7.13;100.00;95660.44;5072109;28;20223;-68
2022/01/05 06:03:55;;;;;;;10.93;6.53;;;;;;;7.05;100.00;95663.75;5072254;28;20048;-67
2022/01/05 06:06:24;;;;;;;10.73;6.90;;;;;;;7.01;100.00;95659.78;5071807;28;20127;-69
2022/01/05 06:08:51;;;;;;;9.67;6.63;;;;;;;7.01;100.00;95667.63;5072163;28;20037;-69
2022/01/05 06:11:18;;;;;;;12.37;6.80;;;;;;;6.98;100.00;95661.81;5071291;28;20043;-69
2022/01/05 06:13:45;;;;;;;12.27;7.17;;;;;;;6.96;100.00;95679.47;5070368;28;20099;-69
2022/01/05 06:16:12;;;;;;;9.33;7.40;;;;;;;6.99;100.00;95672.16;5071561;28;20537;-69
2022/01/05 06:18:39;;;;;;;10.70;6.90;;;;;;;6.98;100.00;95678.34;5072278;28;20497;-68
2022/01/05 06:21:06;;;;;;;11.07;7.60;;;;;;;6.90;100.00;95688.69;5070917;28;20047;-69
2022/01/05 06:23:34;;;;;;;9.50;6.80;;;;;;;6.86;100.00;95695.09;5072626;28;20498;-70
2022/01/05 06:26:01;;;;;;;8.17;6.53;;;;;;;6.82;100.00;95692.94;5072843;28;20565;-71
2022/01/05 06:28:28;;;;;;;8.27;6.50;;;;;;;6.66;100.00;95695.22;5070828;28;20040;-70
2022/01/05 06:30:55;;;;;;;8.90;5.57;;;;;;;6.56;100.00;95697.00;5071141;28;20051;-69
2022/01/05 06:33:22;;;;;;;7.50;5.33;;;;;;;6.53;100.00;95705.09;5068664;28;20044;-70
2022/01/05 06:35:49;;;;;;;6.70;5.20;;;;;;;6.53;100.00;95711.16;5069165;28;20048;-69
2022/01/05 06:38:16;;;;;;;8.93;5.47;;;;;;;6.51;100.00;95692.16;5069337;28;20040;-70
2022/01/05 06:40:45;;;;;;;6.27;4.67;;;;;;;6.52;100.00;95709.50;5068068;28;20044;-71
2022/01/05 06:43:13;;;;;;;6.53;5.03;;;;;;;6.49;100.00;95699.28;5071461;28;20036;-72
2022/01/05 06:45:40;;;;;;;7.40;4.40;;;;;;;6.48;100.00;95710.72;5071563;28;20041;-72
2022/01/05 06:48:07;;;;;;;7.03;4.97;;;;;;;6.44;100.00;95709.34;5070253;28;20134;-71
2022/01/05 06:50:34;;;;;;;5.43;4.07;;;;;;;6.40;100.00;95710.56;5070814;28;20127;-71
2022/01/05 06:53:02;;;;;;;8.53;4.77;;;;;;;6.33;100.00;95708.59;5073137;28;20075;-71
2022/01/05 06:55:29;;;;;;;5.57;4.03;;;;;;;6.30;100.00;95711.50;5073358;28;20127;-71
2022/01/05 06:57:57;;;;;;;5.50;4.40;;;;;;;6.24;100.00;95723.31;5073675;28;20512;-70
2022/01/05 07:00:26;;;;;;;6.57;4.30;;;;;;;6.25;100.00;95713.66;5069457;28;20052;-70
2022/01/05 07:02:53;;;;;;;8.40;4.80;;;;;;;6.24;100.00;95715.47;5069976;28;20513;-71
2022/01/05 07:05:20;;;;;;;6.70;4.53;;;;;;;6.27;100.00;95715.16;5071366;28;20071;-71
2022/01/05 07:07:47;;;;;;;6.93;4.73;;;;;;;6.28;100.00;95718.63;5071259;28;20135;-71
2022/01/05 07:10:14;;;;;;;6.97;5.43;;;;;;;6.27;100.00;95717.78;5073356;28;20132;-71
2022/01/05 07:12:42;;;;;;;5.37;4.00;;;;;;;6.25;100.00;95713.66;5071233;28;20038;-71
2022/01/05 07:15:12;;;;;;;7.50;4.60;;;;;;;6.25;100.00;95718.88;5069639;28;20032;-72
2022/01/05 07:17:39;;;;;;;6.63;4.27;;;;;;;6.28;100.00;95724.69;5071541;28;20056;-71
2022/01/05 07:20:08;;;;;;;8.47;5.67;;;;;;;6.29;100.00;95715.88;5067975;28;20091;-71
2022/01/05 07:22:35;;;;;;;6.07;4.00;;;;;;;6.29;100.00;95713.28;5069416;28;20072;-70
2022/01/05 07:25:02;;;;;;;7.10;4.07;;;;;;;6.26;100.00;95716.13;5070046;28;20075;-70
2022/01/05 07:27:29;;;;;;;6.53;4.33;;;;;;;6.35;100.00;95725.81;5067938;28;20040;-70
2022/01/05 07:29:56;;;;;;;12.73;4.10;;;;;;;6.37;100.00;95723.88;5071289;28;20053;-70
2022/01/05 07:32:24;;;;;;;5.37;3.40;;;;;;;6.46;100.00;95727.50;5070446;28;20074;-72
2022/01/05 07:34:51;;;;;;;5.10;3.77;;;;;;;6.47;100.00;95724.75;5070727;28;20041;-72
2022/01/05 07:37:18;;;;;;;6.37;3.17;;;;;;;6.49;100.00;95708.94;5070674;28;20123;-72
2022/01/05 07:39:45;;;;;;;6.27;3.60;;;;;;;6.48;100.00;95702.06;5072432;28;20044;-72
2022/01/05 07:42:12;;;;;;;5.30;3.43;;;;;;;6.48;100.00;95710.72;5070937;28;20040;-71
2022/01/05 07:44:40;;;;;;;8.53;3.23;;;;;;;6.45;100.00;95710.16;5072996;28;20107;-70
2022/01/05 07:47:08;;;;;;;7.70;4.83;;;;;;;6.40;100.00;95707.94;5081130;28;20109;-72
2022/01/05 07:49:37;;;;;;;9.10;4.83;;;;;;;6.43;100.00;95715.53;5074946;28;20044;-71
2022/01/05 07:52:05;;;;;;;6.07;4.43;;;;;;;6.50;100.00;95713.22;5073106;28;20394;-71
2022/01/05 07:54:34;;;;;;;7.17;3.73;;;;;;;6.45;100.00;95713.59;5071995;28;20033;-71
2022/01/05 07:57:01;;;;;;;7.43;4.80;;;;;;;6.46;100.00;95712.66;5074457;28;20045;-72
2022/01/05 07:59:28;;;;;;;6.10;4.47;;;;;;;6.47;100.00;95706.47;5074058;28;20044;-72
2022/01/05 08:01:55;;;;;;;8.00;4.37;;;;;;;6.53;100.00;95705.94;5074103;28;20083;-72
2022/01/05 08:04:22;;;;;;;8.43;4.53;;;;;;;6.47;100.00;95709.06;5074299;28;20393;-71
2022/01/05 08:06:50;;;;;;;4.73;3.43;;;;;;;6.42;100.00;95711.28;5076301;28;20388;-71
2022/01/05 08:09:18;;;;;;;8.03;4.33;;;;;;;6.42;100.00;95713.03;5073508;28;20043;-72
2022/01/05 08:11:46;;;;;;;6.30;3.93;;;;;;;6.48;100.00;95715.13;5073870;28;20558;-73
2022/01/05 08:14:13;;;;;;;7.50;3.90;;;;;;;6.51;100.00;95705.22;5069547;28;20041;-71
2022/01/05 08:16:40;;;;;;;5.80;3.00;;;;;;;6.39;100.00;95705.47;5070710;28;20072;-68
2022/01/05 08:19:07;;;;;;;5.77;2.80;;;;;;;6.41;100.00;95698.34;5068513;28;20040;-68
2022/01/05 08:21:34;;;;;;;5.13;3.53;;;;;;;6.39;100.00;95702.84;5068255;28;20098;-72
2022/01/05 08:24:03;;;;;;;6.00;3.13;;;;;;;6.39;100.00;95708.91;5069479;28;20036;-72
2022/01/05 08:26:30;;;;;;;7.10;3.50;;;;;;;6.41;100.00;95704.38;5069598;28;20044;-70
2022/01/05 08:28:57;;;;;;;5.00;3.27;;;;;;;6.35;100.00;95710.13;5067864;28;20561;-70
2022/01/05 08:31:24;;;;;;;8.30;4.50;;;;;;;6.48;100.00;95702.88;5068981;28;20044;-70
2022/01/05 08:33:56;;;;;;;8.43;3.17;;;;;;;6.63;100.00;95716.41;5069244;28;20106;-72
2022/01/05 08:36:24;;;;;;;8.60;4.40;;;;;;;6.72;100.00;95710.38;5069028;28;20481;-73
2022/01/05 08:38:51;;;;;;;6.40;3.43;;;;;;;6.78;100.00;95709.84;5066691;28;20059;-71
2022/01/05 08:41:20;;;;;;;8.63;4.27;;;;;;;6.74;100.00;95711.09;5068031;28;20052;-71
2022/01/05 08:43:47;;;;;;;7.20;3.70;;;;;;;6.74;100.00;95711.88;5069086;28;20040;-72
2022/01/05 08:46:14;;;;;;;7.63;3.80;;;;;;;6.70;100.00;95710.50;5068775;28;20401;-72
2022/01/05 08:48:43;;;;;;;8.77;5.20;;;;;;;6.66;100.00;95713.50;5068913;28;20079;-72
2022/01/05 08:51:10;;;;;;;6.00;3.90;;;;;;;6.59;100.00;95704.59;5065880;28;20504;-72
2022/01/05 08:53:37;;;;;;;9.03;5.00;;;;;;;6.47;100.00;95709.06;5067982;28;20090;-72
2022/01/05 08:56:05;;;;;;;8.57;4.90;;;;;;;6.40;100.00;95699.28;5068694;28;20450;-72
2022/01/05 08:58:33;;;;;;;7.83;5.40;;;;;;;6.45;100.00;95708.38;5068577;28;20044;-72
2022/01/05 09:01:00;;;;;;;9.90;5.33;;;;;;;6.51;100.00;95704.38;5067635;28;20405;-71
2022/01/05 09:03:27;;;;;;;9.23;6.30;;;;;;;6.44;100.00;95708.50;5066370;28;20040;-71
2022/01/05 09:05:54;;;;;;;10.90;6.33;;;;;;;6.37;100.00;95699.56;5071108;28;20048;-70
2022/01/05 09:08:21;;;;;;;12.33;8.93;;;;;;;6.43;100.00;95704.22;5067171;28;20043;-71
2022/01/05 09:10:48;;;;;;;14.30;7.50;;;;;;;6.63;100.00;95703.34;5067973;28;20131;-71
2022/01/05 09:13:16;;;;;;;25.13;15.13;;;;;;;6.66;100.00;95695.22;5065339;28;20052;-71
2022/01/05 09:15:44;;;;;;;29.90;18.33;;;;;;;6.78;100.00;95694.97;5068039;28;20470;-71
2022/01/05 09:18:12;;;;;;;13.57;6.73;;;;;;;6.88;100.00;95687.97;5068242;28;20500;-71
2022/01/05 09:20:39;;;;;;;13.00;7.30;;;;;;;6.70;100.00;95689.59;5067689;28;20417;-71
2022/01/05 09:23:06;;;;;;;11.07;7.00;;;;;;;6.55;100.00;95679.63;5066343;28;20086;-71
2022/01/05 09:25:33;;;;;;;13.37;7.83;;;;;;;6.51;100.00;95681.72;5067240;28;20110;-71
2022/01/05 09:28:01;;;;;;;14.60;6.83;;;;;;;6.41;100.00;95677.44;5067659;28;20124;-71
2022/01/05 09:30:28;;;;;;;13.27;7.50;;;;;;;6.49;100.00;95675.78;5067929;28;20504;-70
2022/01/05 09:32:57;;;;;;;12.73;7.70;;;;;;;6.63;100.00;95674.59;5067300;28;20110;-71
2022/01/05 09:35:26;;;;;;;15.13;8.60;;;;;;;6.76;100.00;95678.59;5065173;28;20128;-70
2022/01/05 09:38:06;;;;;;;13.23;6.90;;;;;;;6.80;100.00;95666.91;5067826;28;20454;-70
2022/01/05 09:43:18;;;;;;;14.07;8.90;;;;;;;6.80;100.00;95661.69;5066117;28;20028;-71
2022/01/05 09:45:57;;;;;;;16.27;9.13;;;;;;;6.78;100.00;95649.72;5067046;28;20130;-71
2022/01/05 09:48:46;;;;;;;15.17;7.90;;;;;;;6.71;100.00;95662.47;5067541;28;20384;-71
2022/01/05 09:51:19;;;;;;;32.23;15.43;;;;;;;6.65;100.00;95660.41;5066425;28;20474;-71
2022/01/05 09:53:46;;;;;;;20.92;12.45;;;;;;;6.77;100.00;95668.94;5066564;28;20044;-71
2022/01/05 09:56:13;;;;;;;19.03;10.87;;;;;;;6.91;100.00;95666.78;5067288;28;20044;-71
2022/01/05 09:58:42;;;;;;;20.40;10.80;;;;;;;7.07;100.00;95653.97;5067456;28;20040;-71
2022/01/05 10:01:09;;;;;;;19.27;10.03;;;;;;;7.18;100.00;95653.03;5069128;28;20072;-71
2022/01/05 10:03:37;;;;;;;17.03;10.03;;;;;;;7.25;100.00;95648.88;5063625;28;20095;-71
2022/01/05 10:06:04;;;;;;;15.70;9.57;;;;;;;7.20;100.00;95645.84;5067113;28;20515;-71
2022/01/05 10:08:32;;;;;;;12.30;8.40;;;;;;;7.20;100.00;95651.91;5067554;28;20045;-72
2022/01/05 10:10:59;;;;;;;13.13;8.00;;;;;;;7.32;100.00;95642.16;5066810;28;20405;-71
2022/01/05 10:13:26;;;;;;;11.87;8.47;;;;;;;7.33;100.00;95644.63;5066530;28;20134;-75
2022/01/05 10:15:54;;;;;;;16.47;9.33;;;;;;;7.25;100.00;95636.66;5066922;28;20052;-70
2022/01/05 10:18:23;;;;;;;12.87;9.13;;;;;;;7.17;100.00;95646.97;5067118;28;20041;-70
2022/01/05 10:21:01;;;;;;;14.70;10.13;;;;;;;7.16;100.00;95649.72;5067021;28;20501;-72
2022/01/05 10:23:41;;;;;;;12.53;8.97;;;;;;;7.21;100.00;95639.63;5064929;28;20504;-74
2022/01/05 10:26:26;;;;;;;14.37;8.27;;;;;;;7.29;100.00;95639.81;5064450;28;20047;-69
2022/01/05 10:28:55;;;;;;;14.17;8.67;;;;;;;7.21;100.00;95645.72;5066764;28;20050;-69
2022/01/05 10:31:24;;;;;;;10.17;8.27;;;;;;;7.39;100.00;95648.47;5066924;28;20037;-71
2022/01/05 10:33:52;;;;;;;10.90;7.57;;;;;;;7.40;100.00;95655.38;5064498;28;20037;-70
2022/01/05 10:36:20;;;;;;;11.93;8.00;;;;;;;7.27;100.00;95655.66;5065886;28;20056;-68
2022/01/05 10:38:56;;;;;;;13.03;7.87;;;;;;;7.09;100.00;95654.69;5067016;28;20044;-66
2022/01/05 10:41:26;;;;;;;24.93;11.27;;;;;;;6.95;100.00;95665.53;5064073;28;20071;-69
2022/01/05 10:44:14;;;;;;;18.67;10.63;;;;;;;7.02;100.00;95653.56;5064445;28;20512;-69
2022/01/05 10:46:44;;;;;;;15.73;10.77;;;;;;;7.01;100.00;95648.47;5066004;28;20137;-70
2022/01/05 10:49:22;;;;;;;21.70;10.43;;;;;;;7.14;100.00;95646.38;5066160;28;20186;-69
2022/01/05 10:51:51;;;;;;;21.40;11.20;;;;;;;7.20;100.00;95651.91;5063374;28;20057;-68
2022/01/05 10:54:20;;;;;;;22.07;12.27;;;;;;;7.21;100.00;95650.09;5064862;28;20119;-68
2022/01/05 10:56:48;;;;;;;23.60;14.63;;;;;;;7.16;100.00;95645.31;5065573;28;20048;-70
2022/01/05 10:59:23;;;;;;;21.33;13.90;;;;;;;7.21;100.00;95645.72;5065875;28;20074;-70
2022/01/05 11:01:51;;;;;;;35.73;22.37;;;;;;;7.29;100.00;95639.81;5062540;28;20040;-70
2022/01/05 11:04:20;;;;;;;30.87;18.50;;;;;;;7.30;100.00;95637.03;5064297;28;20378;-71
2022/01/05 11:07:02;;;;;;;27.17;16.80;;;;;;;7.53;100.00;95614.00;5066165;28;20129;-72
2022/01/05 11:09:29;;;;;;;21.17;11.10;;;;;;;7.36;100.00;95614.72;5065178;28;20127;-72
2022/01/05 11:11:56;;;;;;;184.37;146.60;;;;;;;7.25;100.00;95628.78;5066406;28;20040;-72
2022/01/05 11:14:30;;;;;;;17.93;11.27;;;;;;;7.26;100.00;95633.06;5064943;28;20033;-71
2022/01/05 11:16:58;;;;;;;;;;;;;;;7.42;100.00;95622.84;5068701;28;20040;-72
2022/01/05 11:19:27;;;;;;;16.33;9.03;;;;;;;7.33;100.00;95628.91;5071211;28;19924;-72
2022/01/05 11:22:02;;;;;;;11.97;8.37;;;;;;;7.25;100.00;95622.69;5066779;28;20514;-73
2022/01/05 11:24:31;;;;;;;14.80;9.07;;;;;;;7.14;100.00;95618.44;5068405;28;20102;-72
2022/01/05 11:26:59;;;;;;;12.47;9.00;;;;;;;7.17;100.00;95618.16;5068944;28;20049;-70
2022/01/05 11:29:26;;;;;;;12.70;8.17;;;;;;;7.12;100.00;95616.94;5069768;28;20540;-73
2022/01/05 11:31:56;;;;;;;11.53;8.67;;;;;;;7.23;100.00;95614.16;5067908;28;20048;-71
2022/01/05 11:34:24;;;;;;;10.77;7.80;;;;;;;7.13;100.00;95605.50;5066732;28;20045;-72
2022/01/05 11:36:51;;;;;;;14.30;8.57;;;;;;;7.05;100.00;95602.75;5068764;28;20390;-72
2022/01/05 11:39:19;;;;;;;13.10;7.33;;;;;;;7.05;100.00;95608.00;5069467;28;20040;-71